sensor_id;sensor_type;location;lat;lon;timestamp;temperature;humidity
12254;DHT22;6189;52.526;13.390;2022-10-04T00:00:26;13.80;99.90
12254;DHT22;6189;52.526;13.390;2022-10-04T00:03:17;13.80;99.90
12254;DHT22;6189;52.526;13.390;2022-10-04T00:06:13;13.80;99.90
12254;DHT22;6189;52.526;13.390;2022-10-04T00:09:06;13.70;99.90
12254;DHT22;6189;52.526;13.390;2022-10-04T00:11:54;13.80;99.90
12254;DHT22;6189;52.526;13.390;2022-10-04T00:14:42;13.80;99.90
12254;DHT22;6189;52.526;13.390;2022-10-04T00:17:30;13.80;99.90
12254;DHT22;6189;52.526;13.390;2022-10-04T00:23:45;13.80;99.90
12254;DHT22;6189;52.526;13.390;2022-10-04T00:32:59;13.80;99.90
12254;DHT22;6189;52.526;13.390;2022-10-04T00:35:48;13.80;99.90
12254;DHT22;6189;52.526;13.390;2022-10-04T00:38:33;13.80;99.90
12254;DHT22;6189;52.526;13.390;2022-10-04T00:41:19;13.90;99.90
12254;DHT22;6189;52.526;13.390;2022-10-04T00:44:11;13.80;99.90
12254;DHT22;6189;52.526;13.390;2022-10-04T00:47:02;13.80;99.90
12254;DHT22;6189;52.526;13.390;2022-10-04T00:50:05;13.80;99.90
12254;DHT22;6189;52.526;13.390;2022-10-04T00:52:55;13.80;99.90
12254;DHT22;6189;52.526;13.390;2022-10-04T00:55:46;13.70;99.90
12254;DHT22;6189;52.526;13.390;2022-10-04T00:58:35;13.80;99.90
12254;DHT22;6189;52.526;13.390;2022-10-04T01:01:27;13.80;99.90
12254;DHT22;6189;52.526;13.390;2022-10-04T01:04:26;13.70;99.90
12254;DHT22;6189;52.526;13.390;2022-10-04T01:07:16;13.70;99.90
12254;DHT22;6189;52.526;13.390;2022-10-04T01:10:09;13.70;99.90
12254;DHT22;6189;52.526;13.390;2022-10-04T01:12:59;13.70;99.90
12254;DHT22;6189;52.526;13.390;2022-10-04T01:15:51;13.70;99.90
12254;DHT22;6189;52.526;13.390;2022-10-04T01:18:37;13.70;99.90
12254;DHT22;6189;52.526;13.390;2022-10-04T01:21:26;13.70;99.90
12254;DHT22;6189;52.526;13.390;2022-10-04T01:24:18;13.70;99.90
12254;DHT22;6189;52.526;13.390;2022-10-04T01:27:33;13.80;99.90
12254;DHT22;6189;52.526;13.390;2022-10-04T01:30:18;13.70;99.90
12254;DHT22;6189;52.526;13.390;2022-10-04T01:33:04;13.70;99.90
12254;DHT22;6189;52.526;13.390;2022-10-04T01:35:51;13.70;99.90
12254;DHT22;6189;52.526;13.390;2022-10-04T01:38:37;13.70;99.90
12254;DHT22;6189;52.526;13.390;2022-10-04T01:41:28;13.70;99.90
12254;DHT22;6189;52.526;13.390;2022-10-04T01:44:22;13.70;99.90
12254;DHT22;6189;52.526;13.390;2022-10-04T01:47:13;13.70;99.90
12254;DHT22;6189;52.526;13.390;2022-10-04T01:50:02;13.70;99.90
12254;DHT22;6189;52.526;13.390;2022-10-04T01:52:52;13.70;99.90
12254;DHT22;6189;52.526;13.390;2022-10-04T01:55:40;13.70;99.90
12254;DHT22;6189;52.526;13.390;2022-10-04T01:58:32;13.60;99.90
12254;DHT22;6189;52.526;13.390;2022-10-04T02:01:24;13.60;99.90
12254;DHT22;6189;52.526;13.390;2022-10-04T02:04:16;13.60;99.90
12254;DHT22;6189;52.526;13.390;2022-10-04T02:07:03;13.50;99.90
12254;DHT22;6189;52.526;13.390;2022-10-04T02:09:58;13.50;99.90
12254;DHT22;6189;52.526;13.390;2022-10-04T02:12:47;13.40;99.90
12254;DHT22;6189;52.526;13.390;2022-10-04T02:15:35;13.40;99.90
12254;DHT22;6189;52.526;13.390;2022-10-04T02:18:23;13.40;99.90
12254;DHT22;6189;52.526;13.390;2022-10-04T02:21:09;13.50;99.90
12254;DHT22;6189;52.526;13.390;2022-10-04T02:23:56;13.50;99.90
12254;DHT22;6189;52.526;13.390;2022-10-04T02:26:47;13.50;99.90
12254;DHT22;6189;52.526;13.390;2022-10-04T02:29:33;13.50;99.90
12254;DHT22;6189;52.526;13.390;2022-10-04T02:32:20;13.50;99.90
12254;DHT22;6189;52.526;13.390;2022-10-04T02:35:25;13.40;99.90
12254;DHT22;6189;52.526;13.390;2022-10-04T02:38:14;13.40;99.90
12254;DHT22;6189;52.526;13.390;2022-10-04T02:41:04;13.50;99.90
12254;DHT22;6189;52.526;13.390;2022-10-04T02:43:53;13.50;99.90
12254;DHT22;6189;52.526;13.390;2022-10-04T02:46:43;13.40;99.90
12254;DHT22;6189;52.526;13.390;2022-10-04T02:49:36;13.40;99.90
12254;DHT22;6189;52.526;13.390;2022-10-04T02:52:28;13.40;99.90
12254;DHT22;6189;52.526;13.390;2022-10-04T02:55:19;13.40;99.90
12254;DHT22;6189;52.526;13.390;2022-10-04T02:58:08;13.40;99.90
12254;DHT22;6189;52.526;13.390;2022-10-04T03:00:56;13.40;99.90
12254;DHT22;6189;52.526;13.390;2022-10-04T03:03:44;13.30;99.90
12254;DHT22;6189;52.526;13.390;2022-10-04T03:06:32;13.30;99.90
12254;DHT22;6189;52.526;13.390;2022-10-04T03:09:22;13.20;99.90
12254;DHT22;6189;52.526;13.390;2022-10-04T03:12:10;13.20;99.90
12254;DHT22;6189;52.526;13.390;2022-10-04T03:14:56;13.20;99.90
12254;DHT22;6189;52.526;13.390;2022-10-04T03:17:42;13.20;99.90
12254;DHT22;6189;52.526;13.390;2022-10-04T03:20:28;13.20;99.90
12254;DHT22;6189;52.526;13.390;2022-10-04T03:23:17;13.10;99.90
12254;DHT22;6189;52.526;13.390;2022-10-04T03:26:15;13.10;99.90
12254;DHT22;6189;52.526;13.390;2022-10-04T03:29:05;13.20;99.90
12254;DHT22;6189;52.526;13.390;2022-10-04T03:31:54;13.10;99.90
12254;DHT22;6189;52.526;13.390;2022-10-04T03:34:50;13.10;99.90
12254;DHT22;6189;52.526;13.390;2022-10-04T03:37:37;13.00;99.90
12254;DHT22;6189;52.526;13.390;2022-10-04T03:40:26;13.00;99.90
12254;DHT22;6189;52.526;13.390;2022-10-04T03:43:13;13.00;99.90
12254;DHT22;6189;52.526;13.390;2022-10-04T03:46:00;13.10;99.90
12254;DHT22;6189;52.526;13.390;2022-10-04T03:48:48;13.10;99.90
12254;DHT22;6189;52.526;13.390;2022-10-04T03:51:34;13.00;99.90
12254;DHT22;6189;52.526;13.390;2022-10-04T03:54:22;13.00;99.90
12254;DHT22;6189;52.526;13.390;2022-10-04T03:57:12;12.90;99.90
12254;DHT22;6189;52.526;13.390;2022-10-04T03:59:58;12.80;99.90
12254;DHT22;6189;52.526;13.390;2022-10-04T04:02:48;12.90;99.90
12254;DHT22;6189;52.526;13.390;2022-10-04T04:05:39;12.80;99.90
12254;DHT22;6189;52.526;13.390;2022-10-04T04:08:31;12.70;99.90
12254;DHT22;6189;52.526;13.390;2022-10-04T04:11:20;12.70;99.90
12254;DHT22;6189;52.526;13.390;2022-10-04T04:14:12;12.80;99.90
12254;DHT22;6189;52.526;13.390;2022-10-04T04:17:29;12.80;99.90
12254;DHT22;6189;52.526;13.390;2022-10-04T04:20:24;12.90;99.90
12254;DHT22;6189;52.526;13.390;2022-10-04T04:23:18;12.80;99.90
12254;DHT22;6189;52.526;13.390;2022-10-04T04:26:22;12.90;99.90
12254;DHT22;6189;52.526;13.390;2022-10-04T04:29:17;12.80;99.90
12254;DHT22;6189;52.526;13.390;2022-10-04T04:32:11;12.80;99.90
12254;DHT22;6189;52.526;13.390;2022-10-04T04:35:03;12.80;99.90
12254;DHT22;6189;52.526;13.390;2022-10-04T04:38:13;12.90;99.90
12254;DHT22;6189;52.526;13.390;2022-10-04T04:41:06;12.80;99.90
12254;DHT22;6189;52.526;13.390;2022-10-04T04:43:53;12.70;99.90
12254;DHT22;6189;52.526;13.390;2022-10-04T04:46:40;12.70;99.90
12254;DHT22;6189;52.526;13.390;2022-10-04T04:49:28;12.80;99.90
12254;DHT22;6189;52.526;13.390;2022-10-04T04:52:15;12.70;99.90
12254;DHT22;6189;52.526;13.390;2022-10-04T04:55:03;12.70;99.90
12254;DHT22;6189;52.526;13.390;2022-10-04T04:57:51;12.70;99.90
12254;DHT22;6189;52.526;13.390;2022-10-04T05:00:38;12.70;99.90
12254;DHT22;6189;52.526;13.390;2022-10-04T05:03:26;12.70;99.90
12254;DHT22;6189;52.526;13.390;2022-10-04T05:06:24;12.70;99.90
12254;DHT22;6189;52.526;13.390;2022-10-04T05:09:23;12.70;99.90
12254;DHT22;6189;52.526;13.390;2022-10-04T05:12:13;12.70;99.90
12254;DHT22;6189;52.526;13.390;2022-10-04T05:15:00;12.70;99.90
12254;DHT22;6189;52.526;13.390;2022-10-04T05:17:46;12.70;99.90
12254;DHT22;6189;52.526;13.390;2022-10-04T05:20:33;12.70;99.90
12254;DHT22;6189;52.526;13.390;2022-10-04T05:23:19;12.70;99.90
12254;DHT22;6189;52.526;13.390;2022-10-04T05:26:09;12.60;99.90
12254;DHT22;6189;52.526;13.390;2022-10-04T05:29:00;12.60;99.90
12254;DHT22;6189;52.526;13.390;2022-10-04T05:31:51;12.70;99.90
12254;DHT22;6189;52.526;13.390;2022-10-04T05:34:41;12.70;99.90
12254;DHT22;6189;52.526;13.390;2022-10-04T05:37:48;12.80;99.90
12254;DHT22;6189;52.526;13.390;2022-10-04T05:40:41;12.80;99.90
12254;DHT22;6189;52.526;13.390;2022-10-04T05:43:34;12.80;99.90
12254;DHT22;6189;52.526;13.390;2022-10-04T05:46:22;12.90;99.90
12254;DHT22;6189;52.526;13.390;2022-10-04T05:49:11;12.90;99.90
12254;DHT22;6189;52.526;13.390;2022-10-04T05:51:59;12.80;99.90
12254;DHT22;6189;52.526;13.390;2022-10-04T05:55:17;12.90;99.90
12254;DHT22;6189;52.526;13.390;2022-10-04T05:58:20;12.90;99.90
12254;DHT22;6189;52.526;13.390;2022-10-04T06:01:26;13.00;99.90
12254;DHT22;6189;52.526;13.390;2022-10-04T06:04:27;13.00;99.90
12254;DHT22;6189;52.526;13.390;2022-10-04T06:07:22;13.10;99.90
12254;DHT22;6189;52.526;13.390;2022-10-04T06:10:35;13.10;99.90
12254;DHT22;6189;52.526;13.390;2022-10-04T06:16:56;13.20;99.90
12254;DHT22;6189;52.526;13.390;2022-10-04T06:20:03;13.30;99.90
12254;DHT22;6189;52.526;13.390;2022-10-04T06:22:57;13.30;99.90
12254;DHT22;6189;52.526;13.390;2022-10-04T06:25:48;13.30;99.90
12254;DHT22;6189;52.526;13.390;2022-10-04T06:28:37;13.30;99.90
12254;DHT22;6189;52.526;13.390;2022-10-04T06:31:42;13.30;99.90
12254;DHT22;6189;52.526;13.390;2022-10-04T06:34:49;13.30;99.90
12254;DHT22;6189;52.526;13.390;2022-10-04T06:38:11;13.30;99.90
12254;DHT22;6189;52.526;13.390;2022-10-04T06:44:42;13.40;99.90
12254;DHT22;6189;52.526;13.390;2022-10-04T06:47:43;13.50;99.90
12254;DHT22;6189;52.526;13.390;2022-10-04T06:50:39;13.50;99.90
12254;DHT22;6189;52.526;13.390;2022-10-04T06:53:33;13.50;99.90
12254;DHT22;6189;52.526;13.390;2022-10-04T06:56:43;13.50;99.90
12254;DHT22;6189;52.526;13.390;2022-10-04T06:59:40;13.50;99.90
12254;DHT22;6189;52.526;13.390;2022-10-04T07:02:33;13.50;99.90
12254;DHT22;6189;52.526;13.390;2022-10-04T07:05:24;13.50;99.90
12254;DHT22;6189;52.526;13.390;2022-10-04T07:08:17;13.50;99.90
12254;DHT22;6189;52.526;13.390;2022-10-04T07:11:16;13.50;99.90
12254;DHT22;6189;52.526;13.390;2022-10-04T07:14:08;13.50;99.90
12254;DHT22;6189;52.526;13.390;2022-10-04T07:17:00;13.50;99.90
12254;DHT22;6189;52.526;13.390;2022-10-04T07:19:49;13.50;99.90
12254;DHT22;6189;52.526;13.390;2022-10-04T07:22:41;13.50;99.90
12254;DHT22;6189;52.526;13.390;2022-10-04T07:25:33;13.60;99.90
12254;DHT22;6189;52.526;13.390;2022-10-04T07:28:24;13.60;99.90
12254;DHT22;6189;52.526;13.390;2022-10-04T07:31:32;13.60;99.90
12254;DHT22;6189;52.526;13.390;2022-10-04T07:34:24;13.60;99.90
12254;DHT22;6189;52.526;13.390;2022-10-04T07:37:12;13.60;99.90
12254;DHT22;6189;52.526;13.390;2022-10-04T07:40:03;13.70;99.90
12254;DHT22;6189;52.526;13.390;2022-10-04T07:42:54;13.60;99.90
12254;DHT22;6189;52.526;13.390;2022-10-04T07:45:42;13.60;99.90
12254;DHT22;6189;52.526;13.390;2022-10-04T07:48:28;13.70;99.90
12254;DHT22;6189;52.526;13.390;2022-10-04T07:51:18;13.80;99.90
12254;DHT22;6189;52.526;13.390;2022-10-04T07:54:13;13.80;99.90
12254;DHT22;6189;52.526;13.390;2022-10-04T07:57:07;13.90;99.90
12254;DHT22;6189;52.526;13.390;2022-10-04T08:00:01;13.90;99.90
12254;DHT22;6189;52.526;13.390;2022-10-04T08:03:02;13.90;99.90
12254;DHT22;6189;52.526;13.390;2022-10-04T08:05:53;13.90;99.90
12254;DHT22;6189;52.526;13.390;2022-10-04T08:12:04;13.90;99.90
12254;DHT22;6189;52.526;13.390;2022-10-04T08:15:17;13.90;99.90
12254;DHT22;6189;52.526;13.390;2022-10-04T08:18:18;13.90;99.90
12254;DHT22;6189;52.526;13.390;2022-10-04T08:21:06;13.90;99.90
12254;DHT22;6189;52.526;13.390;2022-10-04T08:24:12;13.90;99.90
12254;DHT22;6189;52.526;13.390;2022-10-04T08:27:15;14.00;99.90
12254;DHT22;6189;52.526;13.390;2022-10-04T08:30:10;14.10;99.90
12254;DHT22;6189;52.526;13.390;2022-10-04T08:33:02;14.30;99.90
12254;DHT22;6189;52.526;13.390;2022-10-04T08:36:00;14.20;99.90
12254;DHT22;6189;52.526;13.390;2022-10-04T08:38:51;14.30;99.90
12254;DHT22;6189;52.526;13.390;2022-10-04T08:42:09;14.30;99.90
12254;DHT22;6189;52.526;13.390;2022-10-04T08:45:28;14.30;99.90
12254;DHT22;6189;52.526;13.390;2022-10-04T08:52:21;14.40;99.90
12254;DHT22;6189;52.526;13.390;2022-10-04T08:58:57;14.60;99.90
12254;DHT22;6189;52.526;13.390;2022-10-04T09:02:16;14.70;99.90
12254;DHT22;6189;52.526;13.390;2022-10-04T09:05:28;14.70;99.90
12254;DHT22;6189;52.526;13.390;2022-10-04T09:12:19;14.90;99.90
12254;DHT22;6189;52.526;13.390;2022-10-04T09:15:24;14.80;99.90
12254;DHT22;6189;52.526;13.390;2022-10-04T09:18:26;14.90;99.90
12254;DHT22;6189;52.526;13.390;2022-10-04T09:21:26;15.00;99.90
12254;DHT22;6189;52.526;13.390;2022-10-04T09:24:46;15.10;99.90
12254;DHT22;6189;52.526;13.390;2022-10-04T09:27:54;15.10;99.90
12254;DHT22;6189;52.526;13.390;2022-10-04T09:30:53;15.10;99.90
12254;DHT22;6189;52.526;13.390;2022-10-04T09:33:56;15.20;99.90
12254;DHT22;6189;52.526;13.390;2022-10-04T09:37:20;15.20;99.90
12254;DHT22;6189;52.526;13.390;2022-10-04T09:40:49;15.30;99.90
12254;DHT22;6189;52.526;13.390;2022-10-04T09:44:13;15.40;99.90
12254;DHT22;6189;52.526;13.390;2022-10-04T09:47:20;15.40;99.90
12254;DHT22;6189;52.526;13.390;2022-10-04T09:53:41;15.50;99.90
12254;DHT22;6189;52.526;13.390;2022-10-04T09:56:56;15.50;99.90
12254;DHT22;6189;52.526;13.390;2022-10-04T09:59:57;15.60;99.90
12254;DHT22;6189;52.526;13.390;2022-10-04T10:03:04;15.60;99.90
12254;DHT22;6189;52.526;13.390;2022-10-04T10:06:23;15.70;99.90
12254;DHT22;6189;52.526;13.390;2022-10-04T10:09:25;15.70;99.90
12254;DHT22;6189;52.526;13.390;2022-10-04T10:12:42;15.80;99.90
12254;DHT22;6189;52.526;13.390;2022-10-04T10:15:56;15.80;99.90
12254;DHT22;6189;52.526;13.390;2022-10-04T10:18:56;15.90;99.90
12254;DHT22;6189;52.526;13.390;2022-10-04T10:21:54;15.90;99.90
12254;DHT22;6189;52.526;13.390;2022-10-04T10:24:59;16.00;99.90
12254;DHT22;6189;52.526;13.390;2022-10-04T10:28:05;16.10;99.90
12254;DHT22;6189;52.526;13.390;2022-10-04T10:31:20;16.20;99.90
12254;DHT22;6189;52.526;13.390;2022-10-04T10:34:34;16.20;99.90
12254;DHT22;6189;52.526;13.390;2022-10-04T10:37:36;16.20;99.90
12254;DHT22;6189;52.526;13.390;2022-10-04T10:40:35;16.30;99.90
12254;DHT22;6189;52.526;13.390;2022-10-04T10:43:35;16.40;99.90
12254;DHT22;6189;52.526;13.390;2022-10-04T10:49:52;16.60;99.90
12254;DHT22;6189;52.526;13.390;2022-10-04T10:53:11;16.80;99.90
12254;DHT22;6189;52.526;13.390;2022-10-04T10:56:33;16.90;99.90
12254;DHT22;6189;52.526;13.390;2022-10-04T10:59:53;16.80;99.90
12254;DHT22;6189;52.526;13.390;2022-10-04T11:03:18;16.90;99.90
12254;DHT22;6189;52.526;13.390;2022-10-04T11:06:29;17.00;99.90
12254;DHT22;6189;52.526;13.390;2022-10-04T11:09:33;17.00;99.90
12254;DHT22;6189;52.526;13.390;2022-10-04T11:26:27;16.90;99.90
12254;DHT22;6189;52.526;13.390;2022-10-04T11:29:31;16.90;99.90
12254;DHT22;6189;52.526;13.390;2022-10-04T11:33:03;16.90;99.90
12254;DHT22;6189;52.526;13.390;2022-10-04T11:36:04;16.90;99.90
12254;DHT22;6189;52.526;13.390;2022-10-04T11:39:05;16.90;99.90
12254;DHT22;6189;52.526;13.390;2022-10-04T11:42:06;17.10;99.90
12254;DHT22;6189;52.526;13.390;2022-10-04T11:45:22;17.20;99.90
12254;DHT22;6189;52.526;13.390;2022-10-04T11:48:20;17.20;99.90
12254;DHT22;6189;52.526;13.390;2022-10-04T11:51:35;17.20;99.90
12254;DHT22;6189;52.526;13.390;2022-10-04T11:54:41;17.20;99.90
12254;DHT22;6189;52.526;13.390;2022-10-04T11:57:40;17.30;99.90
12254;DHT22;6189;52.526;13.390;2022-10-04T12:00:49;17.20;99.90
12254;DHT22;6189;52.526;13.390;2022-10-04T12:03:53;17.20;99.90
12254;DHT22;6189;52.526;13.390;2022-10-04T12:06:55;17.20;99.90
12254;DHT22;6189;52.526;13.390;2022-10-04T12:09:47;17.20;99.90
12254;DHT22;6189;52.526;13.390;2022-10-04T12:16:10;17.20;99.90
12254;DHT22;6189;52.526;13.390;2022-10-04T12:19:24;17.20;99.90
12254;DHT22;6189;52.526;13.390;2022-10-04T12:22:28;17.40;99.90
12254;DHT22;6189;52.526;13.390;2022-10-04T12:25:39;17.60;99.90
12254;DHT22;6189;52.526;13.390;2022-10-04T12:28:45;17.80;99.90
12254;DHT22;6189;52.526;13.390;2022-10-04T12:31:40;18.20;99.90
12254;DHT22;6189;52.526;13.390;2022-10-04T12:34:30;18.30;99.90
12254;DHT22;6189;52.526;13.390;2022-10-04T12:37:26;18.50;99.90
12254;DHT22;6189;52.526;13.390;2022-10-04T12:40:23;18.50;99.90
12254;DHT22;6189;52.526;13.390;2022-10-04T12:43:17;18.40;99.90
12254;DHT22;6189;52.526;13.390;2022-10-04T12:46:19;18.30;99.90
12254;DHT22;6189;52.526;13.390;2022-10-04T12:49:19;18.20;99.90
12254;DHT22;6189;52.526;13.390;2022-10-04T12:52:14;18.10;99.90
12254;DHT22;6189;52.526;13.390;2022-10-04T12:55:13;18.00;99.90
12254;DHT22;6189;52.526;13.390;2022-10-04T12:58:08;18.00;99.90
12254;DHT22;6189;52.526;13.390;2022-10-04T13:01:06;17.90;99.90
12254;DHT22;6189;52.526;13.390;2022-10-04T13:04:08;17.90;99.90
12254;DHT22;6189;52.526;13.390;2022-10-04T13:07:08;17.90;99.90
12254;DHT22;6189;52.526;13.390;2022-10-04T13:10:12;17.90;99.90
12254;DHT22;6189;52.526;13.390;2022-10-04T13:13:21;17.90;99.90
12254;DHT22;6189;52.526;13.390;2022-10-04T13:16:15;17.90;99.90
12254;DHT22;6189;52.526;13.390;2022-10-04T13:19:14;17.90;99.90
12254;DHT22;6189;52.526;13.390;2022-10-04T13:25:24;17.80;99.90
12254;DHT22;6189;52.526;13.390;2022-10-04T13:28:21;17.80;99.90
12254;DHT22;6189;52.526;13.390;2022-10-04T13:31:12;17.80;99.90
12254;DHT22;6189;52.526;13.390;2022-10-04T13:34:19;17.70;99.90
12254;DHT22;6189;52.526;13.390;2022-10-04T13:37:24;17.80;99.90
12254;DHT22;6189;52.526;13.390;2022-10-04T13:40:32;17.70;99.90
12254;DHT22;6189;52.526;13.390;2022-10-04T13:43:53;17.80;99.90
12254;DHT22;6189;52.526;13.390;2022-10-04T13:46:55;17.90;99.90
12254;DHT22;6189;52.526;13.390;2022-10-04T13:49:59;17.90;99.90
12254;DHT22;6189;52.526;13.390;2022-10-04T13:52:53;17.90;99.90
12254;DHT22;6189;52.526;13.390;2022-10-04T13:56:06;18.00;99.90
12254;DHT22;6189;52.526;13.390;2022-10-04T13:59:21;18.00;99.90
12254;DHT22;6189;52.526;13.390;2022-10-04T14:02:41;18.00;99.90
12254;DHT22;6189;52.526;13.390;2022-10-04T14:05:49;17.90;99.90
12254;DHT22;6189;52.526;13.390;2022-10-04T14:08:59;17.90;99.90
12254;DHT22;6189;52.526;13.390;2022-10-04T14:12:12;17.90;99.90
12254;DHT22;6189;52.526;13.390;2022-10-04T14:15:25;17.90;99.90
12254;DHT22;6189;52.526;13.390;2022-10-04T14:18:43;17.90;99.90
12254;DHT22;6189;52.526;13.390;2022-10-04T14:21:47;17.90;99.90
12254;DHT22;6189;52.526;13.390;2022-10-04T14:25:00;17.80;99.90
12254;DHT22;6189;52.526;13.390;2022-10-04T14:28:03;17.80;99.90
12254;DHT22;6189;52.526;13.390;2022-10-04T14:31:11;17.80;99.90
12254;DHT22;6189;52.526;13.390;2022-10-04T14:34:23;17.80;99.90
12254;DHT22;6189;52.526;13.390;2022-10-04T14:40:52;17.70;99.90
12254;DHT22;6189;52.526;13.390;2022-10-04T14:44:21;17.70;99.90
12254;DHT22;6189;52.526;13.390;2022-10-04T14:47:24;17.70;99.90
12254;DHT22;6189;52.526;13.390;2022-10-04T14:50:22;17.70;99.90
12254;DHT22;6189;52.526;13.390;2022-10-04T14:53:19;17.70;99.90
12254;DHT22;6189;52.526;13.390;2022-10-04T14:56:18;17.70;99.90
12254;DHT22;6189;52.526;13.390;2022-10-04T14:59:29;17.70;99.90
12254;DHT22;6189;52.526;13.390;2022-10-04T15:02:40;17.60;99.90
12254;DHT22;6189;52.526;13.390;2022-10-04T15:05:43;17.60;99.90
12254;DHT22;6189;52.526;13.390;2022-10-04T15:11:55;17.60;99.90
12254;DHT22;6189;52.526;13.390;2022-10-04T15:15:02;17.60;99.90
12254;DHT22;6189;52.526;13.390;2022-10-04T15:17:57;17.60;99.90
12254;DHT22;6189;52.526;13.390;2022-10-04T15:20:51;17.50;99.90
12254;DHT22;6189;52.526;13.390;2022-10-04T15:23:41;17.50;99.90
12254;DHT22;6189;52.526;13.390;2022-10-04T15:26:47;17.40;99.90
12254;DHT22;6189;52.526;13.390;2022-10-04T15:29:40;17.40;99.90
12254;DHT22;6189;52.526;13.390;2022-10-04T15:32:33;17.40;99.90
12254;DHT22;6189;52.526;13.390;2022-10-04T15:35:27;17.40;99.90
12254;DHT22;6189;52.526;13.390;2022-10-04T15:38:23;17.30;99.90
12254;DHT22;6189;52.526;13.390;2022-10-04T15:41:17;17.30;99.90
12254;DHT22;6189;52.526;13.390;2022-10-04T15:44:27;17.30;99.90
12254;DHT22;6189;52.526;13.390;2022-10-04T15:47:21;17.30;99.90
12254;DHT22;6189;52.526;13.390;2022-10-04T15:50:20;17.30;99.90
12254;DHT22;6189;52.526;13.390;2022-10-04T15:56:34;17.30;99.90
12254;DHT22;6189;52.526;13.390;2022-10-04T15:59:35;17.30;99.90
12254;DHT22;6189;52.526;13.390;2022-10-04T16:02:46;17.30;99.90
12254;DHT22;6189;52.526;13.390;2022-10-04T16:05:39;17.20;99.90
12254;DHT22;6189;52.526;13.390;2022-10-04T16:09:12;17.20;99.90
12254;DHT22;6189;52.526;13.390;2022-10-04T16:12:15;17.20;99.90
12254;DHT22;6189;52.526;13.390;2022-10-04T16:15:15;17.10;99.90
12254;DHT22;6189;52.526;13.390;2022-10-04T16:18:32;17.10;99.90
12254;DHT22;6189;52.526;13.390;2022-10-04T16:21:27;17.10;99.90
12254;DHT22;6189;52.526;13.390;2022-10-04T16:24:37;17.10;99.90
12254;DHT22;6189;52.526;13.390;2022-10-04T16:27:48;17.10;99.90
12254;DHT22;6189;52.526;13.390;2022-10-04T16:30:41;17.00;99.90
12254;DHT22;6189;52.526;13.390;2022-10-04T16:33:35;17.00;99.90
12254;DHT22;6189;52.526;13.390;2022-10-04T16:36:24;17.00;99.90
12254;DHT22;6189;52.526;13.390;2022-10-04T16:39:11;17.00;99.90
12254;DHT22;6189;52.526;13.390;2022-10-04T16:42:19;16.90;99.90
12254;DHT22;6189;52.526;13.390;2022-10-04T16:45:40;16.90;99.90
12254;DHT22;6189;52.526;13.390;2022-10-04T16:48:36;16.90;99.90
12254;DHT22;6189;52.526;13.390;2022-10-04T16:51:49;16.90;99.90
12254;DHT22;6189;52.526;13.390;2022-10-04T16:54:57;16.80;99.90
12254;DHT22;6189;52.526;13.390;2022-10-04T17:02:05;16.80;99.90
12254;DHT22;6189;52.526;13.390;2022-10-04T17:05:16;16.70;99.90
12254;DHT22;6189;52.526;13.390;2022-10-04T17:08:22;16.70;99.90
12254;DHT22;6189;52.526;13.390;2022-10-04T17:11:25;16.70;99.90
12254;DHT22;6189;52.526;13.390;2022-10-04T17:14:29;16.60;99.90
12254;DHT22;6189;52.526;13.390;2022-10-04T17:17:22;16.60;99.90
12254;DHT22;6189;52.526;13.390;2022-10-04T17:20:22;16.60;99.90
12254;DHT22;6189;52.526;13.390;2022-10-04T17:23:33;16.50;99.90
12254;DHT22;6189;52.526;13.390;2022-10-04T17:26:37;16.50;99.90
12254;DHT22;6189;52.526;13.390;2022-10-04T17:29:37;16.40;99.90
12254;DHT22;6189;52.526;13.390;2022-10-04T17:32:35;16.40;99.90
12254;DHT22;6189;52.526;13.390;2022-10-04T17:35:50;16.40;99.90
12254;DHT22;6189;52.526;13.390;2022-10-04T17:38:42;16.40;99.90
12254;DHT22;6189;52.526;13.390;2022-10-04T17:41:41;16.40;99.90
12254;DHT22;6189;52.526;13.390;2022-10-04T17:44:36;16.30;99.90
12254;DHT22;6189;52.526;13.390;2022-10-04T17:47:27;16.30;99.90
12254;DHT22;6189;52.526;13.390;2022-10-04T17:50:46;16.30;99.90
12254;DHT22;6189;52.526;13.390;2022-10-04T17:53:56;16.40;99.90
12254;DHT22;6189;52.526;13.390;2022-10-04T18:00:20;16.20;99.90
12254;DHT22;6189;52.526;13.390;2022-10-04T18:03:12;16.10;99.90
12254;DHT22;6189;52.526;13.390;2022-10-04T18:06:10;16.20;99.90
12254;DHT22;6189;52.526;13.390;2022-10-04T18:08:59;16.10;99.90
12254;DHT22;6189;52.526;13.390;2022-10-04T18:11:48;16.10;99.90
12254;DHT22;6189;52.526;13.390;2022-10-04T18:14:45;16.00;99.90
12254;DHT22;6189;52.526;13.390;2022-10-04T18:17:37;16.00;99.90
12254;DHT22;6189;52.526;13.390;2022-10-04T18:20:26;15.90;99.90
12254;DHT22;6189;52.526;13.390;2022-10-04T18:23:17;15.90;99.90
12254;DHT22;6189;52.526;13.390;2022-10-04T18:26:11;15.90;99.90
12254;DHT22;6189;52.526;13.390;2022-10-04T18:29:01;15.90;99.90
12254;DHT22;6189;52.526;13.390;2022-10-04T18:31:51;15.90;99.90
12254;DHT22;6189;52.526;13.390;2022-10-04T18:34:37;15.80;99.90
12254;DHT22;6189;52.526;13.390;2022-10-04T18:37:31;15.80;99.90
12254;DHT22;6189;52.526;13.390;2022-10-04T18:40:20;15.70;99.90
12254;DHT22;6189;52.526;13.390;2022-10-04T18:43:23;15.70;99.90
12254;DHT22;6189;52.526;13.390;2022-10-04T18:46:15;15.70;99.90
12254;DHT22;6189;52.526;13.390;2022-10-04T18:49:13;15.70;99.90
12254;DHT22;6189;52.526;13.390;2022-10-04T18:52:06;15.60;99.90
12254;DHT22;6189;52.526;13.390;2022-10-04T18:55:05;15.60;99.90
12254;DHT22;6189;52.526;13.390;2022-10-04T18:58:06;15.60;99.90
12254;DHT22;6189;52.526;13.390;2022-10-04T19:01:24;15.60;99.90
12254;DHT22;6189;52.526;13.390;2022-10-04T19:04:43;15.60;99.90
12254;DHT22;6189;52.526;13.390;2022-10-04T19:07:39;15.60;99.90
12254;DHT22;6189;52.526;13.390;2022-10-04T19:10:31;15.50;99.90
12254;DHT22;6189;52.526;13.390;2022-10-04T19:13:28;15.50;99.90
12254;DHT22;6189;52.526;13.390;2022-10-04T19:16:31;15.50;99.90
12254;DHT22;6189;52.526;13.390;2022-10-04T19:19:33;15.40;99.90
12254;DHT22;6189;52.526;13.390;2022-10-04T19:22:31;15.40;99.90
12254;DHT22;6189;52.526;13.390;2022-10-04T19:25:27;15.30;99.90
12254;DHT22;6189;52.526;13.390;2022-10-04T19:28:19;15.30;99.90
12254;DHT22;6189;52.526;13.390;2022-10-04T19:31:14;15.30;99.90
12254;DHT22;6189;52.526;13.390;2022-10-04T19:34:06;15.30;99.90
12254;DHT22;6189;52.526;13.390;2022-10-04T19:36:57;15.30;99.90
12254;DHT22;6189;52.526;13.390;2022-10-04T19:39:49;15.30;99.90
12254;DHT22;6189;52.526;13.390;2022-10-04T19:42:43;15.30;99.90
12254;DHT22;6189;52.526;13.390;2022-10-04T19:45:39;15.30;99.90
12254;DHT22;6189;52.526;13.390;2022-10-04T19:48:29;15.20;99.90
12254;DHT22;6189;52.526;13.390;2022-10-04T19:51:23;15.20;99.90
12254;DHT22;6189;52.526;13.390;2022-10-04T19:54:11;15.20;99.90
12254;DHT22;6189;52.526;13.390;2022-10-04T19:57:00;15.20;99.90
12254;DHT22;6189;52.526;13.390;2022-10-04T19:59:47;15.10;99.90